Airfield :
LOGIN :

Register | Disclaimer

   EN    FR    IT 

 










Legend :    VFR   Marginal VFR   IFR   Intensive IFR   Very Intensive IFR
Visi :
Ceiling :
>= 8 km
>= 3000ft
5 to 8 km
1000 to 3000 ft
1500m to 5 km
500 to 1000 ft
800 to 1500m
200 to 500 ft
< 800m
< 200 ft
Symbols :   Thunderstorms  Fog  Heavy snow  Heavy precipitations  Wind > 20 kt
SIGMETs :     Misc.  Thunderstorms  Icing  Turbulence  Mountain Waves  Volcanic Ashes






- Airport Elevation : 49 ft
- IATA code : GLZ


EHGR - Gilze-Rijen Airbase

CURRENT METAR :
  • 200055Z AUTO 31008G19KT 280V010 9999 FEW015CB SCT022 OVC030 07/03 Q1017 WHT

EXPIRED METARs :
  • 200025Z AUTO 33010KT 270V020 9999 SCT031 BKN037 OVC042 07/03 Q1017 BLU
  • 192355Z AUTO 30009KT 270V340 9999 SCT062 SCT068 BKN074 06/03 Q1017 BLU
  • 192325Z AUTO 31009KT 270V010 9999 FEW015CB SCT051 BKN064 06/03 Q1016 BLU
  • 192308Z AUTO 31009KT 260V360 9999 FEW020 SCT026 BKN030 06/03 Q1016 BLU
  • 192255Z AUTO 31008KT 270V020 9999 FEW020 OVC037 06/04 Q1016 BLU
  • 192225Z AUTO 31007KT 260V350 9999 SCT020 BKN025 BKN030 06/04 Q1016 WHT
  • 192208Z AUTO 31009KT 270V350 9999 FEW015CB SCT022 BKN035 06/04 Q1016 WHT
  • 192155Z AUTO 31010KT 270V350 9999 FEW015CB BKN057 OVC062 06/03 Q1016 BLU
  • 192129Z AUTO 32012KT 280V020 9999 FEW015CB SCT030 BKN037 06/04 Q1015 BLU
  • 192142Z AUTO 32013G24KT 280V360 9999 FEW015CB BKN039 OVC044 06/04 Q1015 BLU
  • 192108Z AUTO 32010KT 250V060 9999 FEW015CB SCT022 BKN026 OVC030 07/04 Q1015 WHT
  • 192104Z AUTO 31011KT 250V010 9999 FEW015CB BKN025 BKN029 07/04 Q1015 BLU
  • 192031Z AUTO 31010KT 280V340 9999 -RA FEW015CB BKN024 OVC029 07/04 Q1015 WHT
  • 192025Z AUTO 31009KT 270V340 9999 FEW015CB BKN025 OVC028 07/04 Q1015 RERA BLU

Expired Forecast.



MET'MAP, your aeronautical weather chart ! - Copyright ORBIFLY December 2007 - Disclaimer

ORBIFLY MET'MAP TEAM :

Programming & Development : Alexandra Zaïnal
Original concept : Baudouin d'Aumeries
Technical & hardware support : Manuel Goepfert
Assistance : Marc-Olivier Méhu




SOURCES & CREDITS :

   NOAA